Airfield :







YOU CAN JOIN US ON...

 
LOGIN :

Register | Disclaimer

   EN    FR    IT 

 









Legend :    VFR   Marginal VFR   IFR   Intensive IFR   Very Intensive IFR
Visi :
Ceiling :
>= 8 km
>= 3000ft
5 to 8 km
1000 to 3000 ft
1500m to 5 km
500 to 1000 ft
800 to 1500m
200 to 500 ft
< 800m
< 200 ft
Symbols :   Thunderstorms  Fog  Heavy snow  Heavy precipitations  Wind > 20 kt







- Airport Elevation : 1442 ft
- IATA code : ZUM


CZUM - Churchill Falls

CURRENT METAR :
  • 160249Z AUTO 02009KT 9SM -RA SCT014 BKN019 BKN039 OVC060 07/06 A2982 RMK SLP113

EXPIRED METARs :
  • 160200Z AUTO 03009G17KT 9SM -RA FEW020 OVC055 07/06 A2980 RMK SLP107
  • 160133Z AUTO 03010G20KT 9SM -RA SCT014 SCT021 BKN034 OVC060 07/06 A2979 RMK SLP105
  • 160120Z AUTO 03013G19KT 9SM -RA BKN014 OVC019 07/06 A2979 RMK SLP104
  • 160016Z AUTO 03011G19KT 9SM BKN011 OVC016 08/07 A2977 RMK SLP096

TAF AMD TAF CZUM
Valid from the 16 at 02:00 until the 16 at 14:00 UTC


160146Z 1602/1614 03010G20KT 6SM -RA SCT008 OVC030
TEMPO 1602/1608 4SM -RA BR BKN008 OVC015
FM160800 03010G20KT 6SM -RA SCT008 OVC015
TEMPO 1608/1614 4SM -RA BR BKN008 OVC015 RMK FCST BASED ON AUTO OBS. NXT FCST BY 160800Z
No reported NOTAMs for that airfield.



MET'MAP, your aeronautical weather chart ! - Copyright ORBIFLY December 2007 - Disclaimer

ORBIFLY MET'MAP TEAM :

Programming & Development : Alexandra Zaïnal
Concept & Development : Baudouin d'Aumeries
Co-Development & Prog : Marc-Olivier Méhu
Technical & hardware support : Manuel Goepfert

Contact : metmap@orbifly.com




SOURCES & CREDITS :

   NOAA